createdAt,value
2022-09-17T00:01:50.213Z,8.25
2022-09-17T00:04:24.720Z,9.75
2022-09-17T00:06:55.488Z,10.73
2022-09-17T00:09:26.032Z,7.63
2022-09-17T00:11:54.784Z,8.15
2022-09-17T00:14:30.919Z,9.43
2022-09-17T00:17:01.885Z,7.47
2022-09-17T00:19:31.061Z,7.15
2022-09-17T00:21:59.681Z,8.27
2022-09-17T00:24:36.609Z,9.13
2022-09-17T00:27:05.117Z,10.50
2022-09-17T00:29:35.626Z,6.50
2022-09-17T00:32:12.951Z,6.75
2022-09-17T00:34:47.168Z,7.07
2022-09-17T00:37:26.461Z,7.00
2022-09-17T00:39:56.763Z,7.07
2022-09-17T00:42:26.153Z,9.40
2022-09-17T00:44:58.452Z,11.05
2022-09-17T00:47:32.644Z,7.07
2022-09-17T00:50:07.237Z,7.13
2022-09-17T00:52:39.567Z,12.30
2022-09-17T00:55:15.394Z,8.88
2022-09-17T00:57:46.052Z,10.10
2022-09-17T01:00:23.005Z,6.95
2022-09-17T01:02:51.356Z,8.85
2022-09-17T01:05:37.233Z,6.47
2022-09-17T01:08:33.070Z,11.88
2022-09-17T01:11:30.226Z,5.53
2022-09-17T01:14:17.008Z,10.07
2022-09-17T01:16:55.872Z,7.25
2022-09-17T01:20:13.995Z,7.75
2022-09-17T01:22:56.054Z,10.98
2022-09-17T01:25:48.445Z,12.38
2022-09-17T01:28:32.948Z,10.52
2022-09-17T01:31:37.405Z,7.43
2022-09-17T01:34:16.799Z,8.60
2022-09-17T01:37:02.271Z,7.78
2022-09-17T01:39:44.691Z,11.32
2022-09-17T01:42:28.837Z,6.88
2022-09-17T01:45:05.327Z,7.22
2022-09-17T01:47:41.215Z,6.97
2022-09-17T01:50:17.450Z,13.43
2022-09-17T01:52:58.426Z,6.93
2022-09-17T01:55:32.558Z,9.13
2022-09-17T01:58:07.628Z,8.27
2022-09-17T02:00:38.038Z,8.00
2022-09-17T02:03:16.670Z,9.70
2022-09-17T02:05:51.155Z,6.22
2022-09-17T02:08:22.908Z,9.70
2022-09-17T02:10:57.723Z,5.43
2022-09-17T02:13:33.389Z,9.52
2022-09-17T02:16:09.688Z,8.00
2022-09-17T02:18:52.219Z,7.28
2022-09-17T02:21:37.973Z,8.52
2022-09-17T02:24:13.545Z,8.65
2022-09-17T02:26:47.401Z,7.82
2022-09-17T02:29:24.923Z,6.65
2022-09-17T02:31:55.473Z,8.40
2022-09-17T02:34:29.884Z,8.93
2022-09-17T02:37:00.275Z,8.35
2022-09-17T02:39:29.488Z,9.45
2022-09-17T02:42:11.056Z,6.38
2022-09-17T02:44:46.275Z,7.05
2022-09-17T02:47:32.553Z,7.45
2022-09-17T02:50:25.093Z,6.85
2022-09-17T02:53:06.456Z,4.13
2022-09-17T02:55:43.456Z,8.25
2022-09-17T02:58:32.920Z,7.10
2022-09-17T03:01:09.369Z,9.70
2022-09-17T03:03:42.835Z,7.70
2022-09-17T03:06:15.725Z,5.68
2022-09-17T03:08:45.845Z,6.38
2022-09-17T03:11:15.624Z,8.90
2022-09-17T03:13:45.964Z,9.57
2022-09-17T03:16:24.090Z,6.75
2022-09-17T03:18:53.784Z,5.22
2022-09-17T03:21:25.535Z,6.00
2022-09-17T03:23:56.129Z,7.28
2022-09-17T03:26:31.724Z,9.35
2022-09-17T03:29:01.368Z,7.70
2022-09-17T03:31:29.940Z,8.23
2022-09-17T03:33:59.038Z,7.32
2022-09-17T03:36:29.017Z,10.43
2022-09-17T03:39:07.988Z,10.45
2022-09-17T03:41:37.498Z,9.13
2022-09-17T03:44:15.770Z,11.82
2022-09-17T03:46:45.397Z,10.18
2022-09-17T03:49:19.194Z,9.98
2022-09-17T03:51:49.352Z,9.50
2022-09-17T03:54:20.658Z,7.70
2022-09-17T03:56:49.873Z,9.77
2022-09-17T03:59:19.240Z,10.55
2022-09-17T04:01:51.080Z,13.50
2022-09-17T04:04:20.479Z,7.90
2022-09-17T04:06:50.544Z,9.32
2022-09-17T04:09:36.004Z,8.43
2022-09-17T04:12:05.373Z,9.95
2022-09-17T04:14:35.663Z,5.78
2022-09-17T04:17:04.603Z,9.68
2022-09-17T04:19:34.197Z,8.18
2022-09-17T04:22:04.988Z,8.50
2022-09-17T04:24:37.761Z,10.65
2022-09-17T04:27:08.058Z,7.90
2022-09-17T04:29:36.410Z,14.57
2022-09-17T04:32:14.393Z,11.43
2022-09-17T04:34:44.875Z,6.78
2022-09-17T04:37:17.353Z,10.07
2022-09-17T04:39:50.950Z,9.48
2022-09-17T04:42:25.429Z,9.20
2022-09-17T04:45:03.107Z,6.35
2022-09-17T04:47:33.538Z,10.80
2022-09-17T04:50:02.963Z,7.75
2022-09-17T04:52:46.640Z,6.38
2022-09-17T04:55:17.977Z,10.23
2022-09-17T04:57:48.789Z,11.40
2022-09-17T05:00:18.800Z,7.00
2022-09-17T05:02:48.640Z,5.93
2022-09-17T05:05:18.744Z,5.53
2022-09-17T05:07:52.167Z,8.05
2022-09-17T05:10:23.461Z,6.70
2022-09-17T05:12:53.272Z,6.70
2022-09-17T05:15:22.404Z,8.13
2022-09-17T05:17:59.318Z,7.45
2022-09-17T05:20:56.061Z,8.05
2022-09-17T05:23:42.259Z,10.95
2022-09-17T05:26:10.824Z,6.63
2022-09-17T05:28:47.992Z,5.93
2022-09-17T05:31:22.614Z,8.15
2022-09-17T05:33:51.174Z,10.75
2022-09-17T05:36:20.551Z,8.55
2022-09-17T05:38:57.595Z,5.50
2022-09-17T05:41:32.023Z,10.35
2022-09-17T05:44:18.279Z,6.50
2022-09-17T05:46:48.249Z,9.48
2022-09-17T05:49:17.197Z,9.07
2022-09-17T05:51:52.188Z,9.90
2022-09-17T05:54:28.861Z,7.45
2022-09-17T05:56:57.465Z,17.13
2022-09-17T05:59:27.023Z,9.77
2022-09-17T06:01:57.675Z,6.45
2022-09-17T06:04:28.223Z,12.65
2022-09-17T06:06:57.942Z,6.93
2022-09-17T06:09:29.942Z,9.02
2022-09-17T06:11:58.838Z,7.10
2022-09-17T06:14:29.407Z,8.52
2022-09-17T06:16:58.475Z,10.10
2022-09-17T06:19:27.182Z,7.03
2022-09-17T06:21:55.900Z,6.80
2022-09-17T06:24:26.277Z,10.45
2022-09-17T06:26:56.588Z,8.05
2022-09-17T06:29:25.618Z,8.23
2022-09-17T06:31:54.723Z,8.68
2022-09-17T06:34:24.668Z,7.22
2022-09-17T06:36:53.344Z,6.90
2022-09-17T06:39:28.197Z,8.70
2022-09-17T06:41:58.530Z,11.50
2022-09-17T06:44:27.480Z,10.10
2022-09-17T06:46:55.881Z,7.65
2022-09-17T06:49:25.781Z,7.38
2022-09-17T06:51:56.471Z,10.80
2022-09-17T06:54:25.044Z,6.18
2022-09-17T06:56:54.448Z,8.77
2022-09-17T06:59:26.904Z,8.07
2022-09-17T07:01:56.747Z,8.30
2022-09-17T07:04:25.571Z,9.27
2022-09-17T07:06:53.916Z,8.52
2022-09-17T07:09:22.431Z,7.78
2022-09-17T07:11:50.640Z,6.07
2022-09-17T07:14:19.404Z,8.93
2022-09-17T07:16:49.442Z,7.50
2022-09-17T07:19:20.152Z,7.43
2022-09-17T07:21:50.689Z,8.95
2022-09-17T07:24:20.509Z,8.27
2022-09-17T07:26:49.516Z,6.55
2022-09-17T07:29:18.966Z,7.32
2022-09-17T07:31:59.730Z,9.13
2022-09-17T07:34:30.567Z,8.90
2022-09-17T07:36:59.052Z,9.45
2022-09-17T07:39:27.375Z,7.25
2022-09-17T07:41:55.728Z,8.30
2022-09-17T07:44:24.530Z,8.02
2022-09-17T07:47:00.008Z,6.40
2022-09-17T07:49:28.960Z,9.07
2022-09-17T07:52:00.843Z,7.32
2022-09-17T07:54:38.416Z,9.13
2022-09-17T07:57:09.273Z,9.65
2022-09-17T07:59:39.130Z,10.27
2022-09-17T08:02:14.622Z,6.50
2022-09-17T08:04:44.908Z,9.88
2022-09-17T08:07:14.326Z,11.18
2022-09-17T08:09:44.841Z,8.65
2022-09-17T08:12:14.589Z,6.03
2022-09-17T08:14:43.890Z,8.23
2022-09-17T08:17:13.928Z,9.80
2022-09-17T08:19:43.529Z,9.30
2022-09-17T08:22:13.172Z,5.10
2022-09-17T08:24:48.557Z,10.25
2022-09-17T08:27:17.906Z,7.05
2022-09-17T08:29:48.557Z,8.30
2022-09-17T08:32:20.074Z,8.20
2022-09-17T08:34:58.298Z,9.07
2022-09-17T08:37:33.972Z,5.85
2022-09-17T08:40:04.164Z,6.85
2022-09-17T08:42:38.937Z,6.95
2022-09-17T08:45:14.410Z,7.18
2022-09-17T08:47:48.560Z,7.47
2022-09-17T08:50:26.597Z,6.80
2022-09-17T08:53:21.895Z,8.30
2022-09-17T08:56:03.454Z,7.90
2022-09-17T08:59:02.190Z,6.68
2022-09-17T09:01:39.557Z,9.55
2022-09-17T09:04:33.586Z,5.95
2022-09-17T09:07:12.785Z,10.45
2022-09-17T09:09:47.124Z,5.78
2022-09-17T09:12:24.479Z,6.18
2022-09-17T09:15:00.172Z,9.38
2022-09-17T09:17:40.445Z,5.55
2022-09-17T09:20:18.679Z,6.97
2022-09-17T09:22:52.212Z,8.90
2022-09-17T09:25:24.652Z,4.25
2022-09-17T09:28:18.550Z,7.20
2022-09-17T09:31:02.261Z,9.57
2022-09-17T09:33:34.313Z,6.43
2022-09-17T09:36:07.610Z,4.68
2022-09-17T09:38:42.225Z,6.80
2022-09-17T09:41:21.644Z,5.28
2022-09-17T09:44:04.013Z,8.77
2022-09-17T09:46:52.806Z,7.22
2022-09-17T09:49:37.953Z,4.63
2022-09-17T09:52:22.016Z,6.40
2022-09-17T09:55:12.210Z,5.45
2022-09-17T09:57:47.624Z,5.60
2022-09-17T10:00:28.407Z,4.97
2022-09-17T10:03:05.752Z,6.75
2022-09-17T10:05:34.562Z,4.80
2022-09-17T10:08:13.730Z,4.88
2022-09-17T10:11:01.989Z,3.63
2022-09-17T10:13:33.173Z,8.38
2022-09-17T10:16:19.573Z,4.80
2022-09-17T10:18:51.070Z,4.97
2022-09-17T10:21:22.676Z,4.70
2022-09-17T10:23:52.876Z,2.40
2022-09-17T10:26:25.961Z,2.88
2022-09-17T10:28:57.178Z,8.40
2022-09-17T10:31:26.423Z,7.53
2022-09-17T10:33:59.014Z,5.70
2022-09-17T10:36:44.086Z,2.60
2022-09-17T10:39:32.747Z,6.15
2022-09-17T10:42:05.055Z,6.38
2022-09-17T10:44:37.611Z,3.53
2022-09-17T10:47:13.387Z,7.50
2022-09-17T10:49:45.397Z,1.23
2022-09-17T10:52:23.626Z,3.97
2022-09-17T10:55:06.399Z,6.88
2022-09-17T10:57:51.187Z,3.33
2022-09-17T11:00:23.963Z,3.95
2022-09-17T11:03:22.057Z,3.38
2022-09-17T11:06:13.706Z,3.40
2022-09-17T11:08:53.223Z,5.45
2022-09-17T11:11:34.911Z,3.10
2022-09-17T11:14:15.404Z,5.90
2022-09-17T11:16:55.929Z,6.28
2022-09-17T11:19:36.860Z,3.97
2022-09-17T11:22:13.497Z,3.17
2022-09-17T11:25:11.804Z,3.35
2022-09-17T11:27:57.556Z,3.95
2022-09-17T11:30:27.435Z,4.30
2022-09-17T11:33:17.984Z,3.97
2022-09-17T11:35:50.656Z,5.05
2022-09-17T11:38:26.718Z,2.88
2022-09-17T11:41:04.710Z,4.10
2022-09-17T11:43:38.076Z,3.22
2022-09-17T11:46:11.024Z,9.45
2022-09-17T11:48:47.914Z,3.80
2022-09-17T11:51:29.392Z,4.65
2022-09-17T11:54:05.451Z,2.58
2022-09-17T11:56:40.740Z,3.72
2022-09-17T11:59:20.116Z,4.45
2022-09-17T12:01:53.343Z,4.65
2022-09-17T12:04:44.121Z,2.70
2022-09-17T12:07:24.048Z,3.33
2022-09-17T12:09:58.857Z,4.55
2022-09-17T12:12:50.202Z,4.45
2022-09-17T12:15:25.388Z,3.60
2022-09-17T12:18:31.616Z,3.58
2022-09-17T12:21:04.856Z,6.25
2022-09-17T12:23:40.827Z,1.92
2022-09-17T12:26:24.936Z,4.35
2022-09-17T12:29:02.862Z,6.10
2022-09-17T12:31:41.685Z,4.90
2022-09-17T12:34:32.698Z,4.82
2022-09-17T12:37:13.004Z,2.53
2022-09-17T12:39:57.596Z,2.88
2022-09-17T12:42:44.972Z,2.45
2022-09-17T12:45:26.669Z,3.80
2022-09-17T12:48:23.139Z,3.53
2022-09-17T12:51:05.714Z,5.05
2022-09-17T12:53:38.674Z,7.95
2022-09-17T12:56:19.419Z,2.58
2022-09-17T12:59:03.770Z,3.22
2022-09-17T13:01:39.976Z,5.47
2022-09-17T13:05:00.626Z,2.75
2022-09-17T13:07:55.393Z,4.53
2022-09-17T13:10:40.024Z,2.42
2022-09-17T13:13:26.694Z,4.55
2022-09-17T13:16:08.429Z,3.80
2022-09-17T13:19:05.700Z,4.82
2022-09-17T13:21:45.950Z,4.90
2022-09-17T13:24:20.087Z,3.60
2022-09-17T13:26:48.974Z,3.28
2022-09-17T13:29:50.595Z,5.45
2022-09-17T13:32:52.689Z,3.15
2022-09-17T13:35:54.343Z,6.18
2022-09-17T13:38:25.784Z,3.20
2022-09-17T13:41:28.696Z,3.33
2022-09-17T13:44:00.790Z,4.20
2022-09-17T13:46:33.795Z,5.35
2022-09-17T13:49:07.198Z,2.13
2022-09-17T13:51:53.845Z,3.60
2022-09-17T13:54:40.169Z,5.20
2022-09-17T13:57:16.502Z,3.60
2022-09-17T13:59:59.234Z,6.40
2022-09-17T14:02:50.610Z,2.92
2022-09-17T14:05:38.131Z,5.03
2022-09-17T14:08:16.322Z,3.92
2022-09-17T14:10:50.318Z,3.42
2022-09-17T14:13:45.176Z,4.78
2022-09-17T14:16:35.983Z,3.55
2022-09-17T14:19:22.750Z,2.50
2022-09-17T14:22:01.015Z,4.90
2022-09-17T14:24:38.364Z,3.42
2022-09-17T14:27:22.679Z,5.60
2022-09-17T14:30:17.205Z,3.13
2022-09-17T14:32:53.560Z,3.47
2022-09-17T14:35:28.250Z,2.15
2022-09-17T14:38:10.716Z,4.75
2022-09-17T14:40:48.598Z,4.25
2022-09-17T14:43:44.943Z,3.50
2022-09-17T14:46:24.671Z,2.90
2022-09-17T14:48:53.588Z,3.63
2022-09-17T14:51:31.128Z,3.88
2022-09-17T14:54:21.201Z,2.45
2022-09-17T14:57:20.179Z,4.65
2022-09-17T14:59:56.290Z,2.72
2022-09-17T15:02:35.937Z,2.58
2022-09-17T15:05:15.029Z,2.55
2022-09-17T15:07:45.370Z,6.57
2022-09-17T15:10:16.635Z,3.58
2022-09-17T15:12:47.238Z,2.92
2022-09-17T15:15:23.595Z,3.78
2022-09-17T15:17:56.481Z,2.67
2022-09-17T15:20:34.078Z,2.30
2022-09-17T15:23:13.657Z,3.03
2022-09-17T15:26:03.980Z,3.20
2022-09-17T15:28:56.990Z,4.80
2022-09-17T15:31:41.448Z,3.80
2022-09-17T15:44:00.099Z,4.18
2022-09-17T15:46:57.539Z,2.25
2022-09-17T15:49:35.346Z,3.50
2022-09-17T15:52:31.956Z,3.35
2022-09-17T15:55:00.910Z,2.10
2022-09-17T15:57:33.850Z,4.90
2022-09-17T16:00:17.759Z,2.25
2022-09-17T16:02:56.966Z,2.55
2022-09-17T16:05:55.746Z,3.28
2022-09-17T16:08:35.923Z,2.63
2022-09-17T16:11:04.234Z,2.53
2022-09-17T16:13:32.802Z,3.13
2022-09-17T16:16:02.005Z,2.20
2022-09-17T16:18:32.484Z,3.25
2022-09-17T16:21:15.102Z,2.45
2022-09-17T16:23:49.657Z,2.78
2022-09-17T16:26:21.374Z,2.10
2022-09-17T16:29:02.166Z,1.58
2022-09-17T16:31:53.217Z,2.60
2022-09-17T16:34:28.870Z,3.03
2022-09-17T16:40:19.204Z,2.88
2022-09-17T16:43:15.690Z,2.92
2022-09-17T16:46:00.153Z,4.40
2022-09-17T16:48:36.808Z,1.70
2022-09-17T16:51:19.633Z,3.65
2022-09-17T16:53:50.480Z,2.42
2022-09-17T16:56:21.771Z,3.53
2022-09-17T16:58:50.699Z,3.45
2022-09-17T17:01:21.109Z,3.08
2022-09-17T17:03:53.843Z,3.58
2022-09-17T17:06:57.979Z,1.33
2022-09-17T17:09:38.464Z,2.45
2022-09-17T17:12:07.795Z,3.13
2022-09-17T17:14:37.812Z,3.10
2022-09-17T17:17:06.418Z,2.05
2022-09-17T17:19:35.479Z,3.70
2022-09-17T17:22:06.990Z,2.00
2022-09-17T17:24:36.119Z,2.67
2022-09-17T17:27:04.836Z,4.38
2022-09-17T17:29:34.623Z,3.63
2022-09-17T17:32:04.049Z,3.20
2022-09-17T17:34:33.320Z,3.47
2022-09-17T17:37:01.621Z,2.30
2022-09-17T17:39:34.729Z,3.85
2022-09-17T17:42:03.034Z,5.07
2022-09-17T17:44:31.394Z,5.93
2022-09-17T17:47:00.087Z,4.75
2022-09-17T17:49:28.701Z,3.88
2022-09-17T17:51:57.011Z,3.35
2022-09-17T17:54:27.690Z,4.80
2022-09-17T17:56:58.157Z,4.22
2022-09-17T17:59:27.765Z,8.80
2022-09-17T18:01:56.737Z,2.83
2022-09-17T18:04:25.879Z,4.05
2022-09-17T18:06:54.509Z,4.05
2022-09-17T18:09:23.575Z,2.00
2022-09-17T18:11:52.362Z,3.45
2022-09-17T18:14:22.197Z,3.15
2022-09-17T18:16:50.888Z,5.63
2022-09-17T18:19:19.343Z,5.65
2022-09-17T18:22:44.717Z,4.20
2022-09-17T18:54:25.203Z,6.80
2022-09-17T18:56:54.127Z,7.53
2022-09-17T18:59:23.560Z,7.22
2022-09-17T19:01:53.344Z,9.68
2022-09-17T19:04:22.973Z,5.68
2022-09-17T19:06:52.387Z,6.63
2022-09-17T19:09:20.918Z,6.70
2022-09-17T19:11:50.620Z,7.10
2022-09-17T19:14:19.073Z,6.22
2022-09-17T19:16:47.340Z,8.43
2022-09-17T19:19:16.668Z,7.90
2022-09-17T19:21:50.545Z,7.90
2022-09-17T19:24:19.000Z,5.97
2022-09-17T19:26:50.972Z,10.77
2022-09-17T19:29:21.428Z,8.75
2022-09-17T19:31:49.881Z,11.35
2022-09-17T19:34:18.416Z,14.85
2022-09-17T19:36:47.858Z,12.95
2022-09-17T19:39:18.203Z,13.95
2022-09-17T19:41:47.000Z,13.52
2022-09-17T19:44:15.364Z,14.75
2022-09-17T19:46:45.362Z,15.20
2022-09-17T19:49:14.305Z,9.65
2022-09-17T19:51:42.692Z,15.57
2022-09-17T19:54:11.691Z,11.77
2022-09-17T19:56:40.291Z,10.85
2022-09-17T19:59:08.717Z,15.93
2022-09-17T20:01:37.165Z,26.60
2022-09-17T20:04:08.264Z,28.75
2022-09-17T20:06:37.860Z,15.77
2022-09-17T20:09:06.226Z,15.88
2022-09-17T20:11:35.307Z,11.25
2022-09-17T20:14:07.327Z,16.55
2022-09-17T20:16:37.949Z,17.23
2022-09-17T20:19:08.784Z,14.93
2022-09-17T20:21:37.519Z,21.25
2022-09-17T20:24:08.423Z,12.48
2022-09-17T20:26:37.332Z,12.88
2022-09-17T20:29:06.086Z,9.55
2022-09-17T20:31:35.145Z,10.75
2022-09-17T20:34:04.748Z,10.93
2022-09-17T20:36:36.245Z,8.25
2022-09-17T20:39:14.306Z,9.80
2022-09-17T20:41:47.481Z,8.85
2022-09-17T20:44:17.868Z,6.40
2022-09-17T20:46:47.326Z,7.70
2022-09-17T20:49:15.907Z,6.30
2022-09-17T20:51:47.234Z,8.15
2022-09-17T20:54:16.560Z,9.95
2022-09-17T20:56:45.113Z,7.68
2022-09-17T20:59:18.912Z,8.98
2022-09-17T21:01:50.528Z,7.85
2022-09-17T21:04:20.511Z,11.18
2022-09-17T21:06:55.379Z,9.48
2022-09-17T21:09:24.340Z,12.20
2022-09-17T21:11:53.073Z,10.05
2022-09-17T21:14:22.252Z,8.63
2022-09-17T21:16:51.195Z,10.75
2022-09-17T21:19:20.921Z,9.98
2022-09-17T21:21:51.873Z,10.27
2022-09-17T21:24:21.800Z,10.27
2022-09-17T21:26:51.781Z,8.35
2022-09-17T21:29:20.256Z,10.63
2022-09-17T21:31:48.873Z,9.30
2022-09-17T21:34:18.595Z,9.20
2022-09-17T21:36:48.308Z,10.50
2022-09-17T21:39:18.636Z,8.45
2022-09-17T21:41:49.296Z,10.52
2022-09-17T21:44:17.727Z,9.38
2022-09-17T21:46:46.602Z,13.32
2022-09-17T21:49:16.560Z,9.25
2022-09-17T21:51:45.015Z,9.10
2022-09-17T21:54:17.153Z,9.93
2022-09-17T21:56:47.952Z,8.15
2022-09-17T21:59:17.684Z,8.88
2022-09-17T22:01:49.004Z,11.82
2022-09-17T22:04:20.164Z,7.78
2022-09-17T22:06:51.245Z,8.30
2022-09-17T22:09:22.308Z,10.50
2022-09-17T22:11:53.408Z,8.52
2022-09-17T22:14:23.502Z,6.00
2022-09-17T22:16:54.726Z,7.07
2022-09-17T22:19:25.429Z,9.18
2022-09-17T22:21:55.842Z,9.75
2022-09-17T22:24:25.772Z,10.68
2022-09-17T22:26:58.214Z,9.88
2022-09-17T22:29:31.721Z,9.85
2022-09-17T22:32:00.965Z,9.88
2022-09-17T22:34:29.922Z,7.82
2022-09-17T22:36:59.275Z,7.15
2022-09-17T22:39:27.697Z,7.00
2022-09-17T22:41:57.738Z,9.50
2022-09-17T22:44:26.522Z,8.40
2022-09-17T22:46:54.963Z,10.13
2022-09-17T22:49:23.463Z,9.20
2022-09-17T22:51:51.690Z,8.07
2022-09-17T22:54:20.492Z,8.57
2022-09-17T22:56:49.944Z,9.25
2022-09-17T22:59:21.864Z,7.13
2022-09-17T23:01:50.407Z,6.50
2022-09-17T23:04:18.782Z,10.10
2022-09-17T23:06:47.668Z,8.15
2022-09-17T23:09:17.124Z,7.97
2022-09-17T23:11:47.133Z,8.02
2022-09-17T23:14:18.422Z,9.48
2022-09-17T23:16:49.747Z,7.65
2022-09-17T23:19:20.081Z,7.32
2022-09-17T23:21:48.756Z,9.15
2022-09-17T23:24:19.859Z,8.35
2022-09-17T23:26:48.817Z,10.77
2022-09-17T23:29:17.720Z,8.18
2022-09-17T23:31:47.608Z,6.55
2022-09-17T23:34:15.989Z,8.88
2022-09-17T23:36:44.373Z,7.00
2022-09-17T23:39:13.832Z,7.40
2022-09-17T23:41:45.689Z,11.73
2022-09-17T23:44:16.320Z,7.95
2022-09-17T23:46:46.000Z,8.27
2022-09-17T23:49:16.363Z,8.55
2022-09-17T23:51:44.825Z,8.38
2022-09-17T23:54:13.684Z,9.32
2022-09-17T23:56:42.471Z,9.43
2022-09-17T23:59:11.999Z,8.18
